sensor_id;sensor_type;location;lat;lon;timestamp;pressure;altitude;pressure_sealevel;temperature;humidity
58471;BME280;44258;51.288;12.068;2022-12-05T00:01:27;100460.16;;;2.44;76.61
58471;BME280;44258;51.288;12.068;2022-12-05T00:03:56;100458.28;;;2.49;76.54
58471;BME280;44258;51.288;12.068;2022-12-05T00:06:26;100459.31;;;2.42;76.85
58471;BME280;44258;51.288;12.068;2022-12-05T00:08:55;100462.34;;;2.24;77.29
58471;BME280;44258;51.288;12.068;2022-12-05T00:11:26;100466.63;;;2.32;77.12
58471;BME280;44258;51.288;12.068;2022-12-05T00:13:55;100464.19;;;2.20;77.74
58471;BME280;44258;51.288;12.068;2022-12-05T00:16:24;100472.41;;;2.06;78.39
58471;BME280;44258;51.288;12.068;2022-12-05T00:18:52;100472.59;;;1.96;78.93
58471;BME280;44258;51.288;12.068;2022-12-05T00:21:20;100469.66;;;2.11;78.54
58471;BME280;44258;51.288;12.068;2022-12-05T00:23:48;100472.09;;;2.23;78.01
58471;BME280;44258;51.288;12.068;2022-12-05T00:26:17;100465.03;;;2.22;77.78
58471;BME280;44258;51.288;12.068;2022-12-05T00:28:45;100471.97;;;2.29;77.71
58471;BME280;44258;51.288;12.068;2022-12-05T00:31:14;100473.16;;;2.15;78.11
58471;BME280;44258;51.288;12.068;2022-12-05T00:33:41;100468.59;;;2.21;77.86
58471;BME280;44258;51.288;12.068;2022-12-05T00:36:11;100471.25;;;2.20;77.95
58471;BME280;44258;51.288;12.068;2022-12-05T00:38:38;100479.75;;;2.39;77.39
58471;BME280;44258;51.288;12.068;2022-12-05T00:41:09;100473.78;;;2.27;77.76
58471;BME280;44258;51.288;12.068;2022-12-05T00:43:38;100475.34;;;2.38;77.50
58471;BME280;44258;51.288;12.068;2022-12-05T00:46:07;100469.22;;;2.34;77.58
58471;BME280;44258;51.288;12.068;2022-12-05T00:48:35;100470.38;;;2.21;78.04
58471;BME280;44258;51.288;12.068;2022-12-05T00:51:04;100472.31;;;2.11;78.60
58471;BME280;44258;51.288;12.068;2022-12-05T00:53:32;100473.56;;;2.38;77.51
58471;BME280;44258;51.288;12.068;2022-12-05T00:56:01;100476.25;;;2.37;77.21
58471;BME280;44258;51.288;12.068;2022-12-05T00:58:30;100477.09;;;2.39;77.37
58471;BME280;44258;51.288;12.068;2022-12-05T01:01:04;100476.31;;;2.33;77.58
58471;BME280;44258;51.288;12.068;2022-12-05T01:03:32;100478.91;;;2.37;77.41
58471;BME280;44258;51.288;12.068;2022-12-05T01:05:59;100474.97;;;2.12;77.91
58471;BME280;44258;51.288;12.068;2022-12-05T01:08:26;100474.84;;;2.19;77.95
58471;BME280;44258;51.288;12.068;2022-12-05T01:10:52;100469.63;;;2.14;77.86
58471;BME280;44258;51.288;12.068;2022-12-05T01:13:19;100477.53;;;2.16;78.05
58471;BME280;44258;51.288;12.068;2022-12-05T01:15:46;100474.00;;;2.17;77.94
58471;BME280;44258;51.288;12.068;2022-12-05T01:18:14;100484.41;;;2.26;77.80
58471;BME280;44258;51.288;12.068;2022-12-05T01:20:42;100486.06;;;2.31;77.56
58471;BME280;44258;51.288;12.068;2022-12-05T01:23:10;100484.25;;;2.33;77.46
58471;BME280;44258;51.288;12.068;2022-12-05T01:25:38;100479.81;;;2.36;77.08
58471;BME280;44258;51.288;12.068;2022-12-05T01:28:06;100483.31;;;2.36;77.26
58471;BME280;44258;51.288;12.068;2022-12-05T01:30:36;100481.84;;;2.21;77.75
58471;BME280;44258;51.288;12.068;2022-12-05T01:33:03;100475.59;;;2.24;77.85
58471;BME280;44258;51.288;12.068;2022-12-05T01:35:32;100475.66;;;2.22;77.88
58471;BME280;44258;51.288;12.068;2022-12-05T01:38:02;100476.66;;;2.15;77.77
58471;BME280;44258;51.288;12.068;2022-12-05T01:40:29;100480.06;;;2.22;77.83
58471;BME280;44258;51.288;12.068;2022-12-05T01:42:57;100479.91;;;2.29;77.68
58471;BME280;44258;51.288;12.068;2022-12-05T01:45:30;100482.72;;;2.22;78.21
58471;BME280;44258;51.288;12.068;2022-12-05T01:48:01;100489.66;;;2.30;77.88
58471;BME280;44258;51.288;12.068;2022-12-05T01:50:29;100477.88;;;2.42;77.11
58471;BME280;44258;51.288;12.068;2022-12-05T01:52:57;100481.72;;;2.27;77.59
58471;BME280;44258;51.288;12.068;2022-12-05T01:55:24;100473.03;;;2.21;77.73
58471;BME280;44258;51.288;12.068;2022-12-05T01:57:52;100481.69;;;2.30;77.45
58471;BME280;44258;51.288;12.068;2022-12-05T02:00:19;100481.94;;;2.18;77.86
58471;BME280;44258;51.288;12.068;2022-12-05T02:02:50;100478.25;;;2.25;78.01
58471;BME280;44258;51.288;12.068;2022-12-05T02:05:21;100473.78;;;2.26;77.75
58471;BME280;44258;51.288;12.068;2022-12-05T02:07:48;100476.31;;;2.32;78.01
58471;BME280;44258;51.288;12.068;2022-12-05T02:10:17;100478.19;;;2.28;77.64
58471;BME280;44258;51.288;12.068;2022-12-05T02:12:44;100471.06;;;2.30;77.65
58471;BME280;44258;51.288;12.068;2022-12-05T02:15:24;100470.41;;;2.19;78.23
58471;BME280;44258;51.288;12.068;2022-12-05T02:18:01;100477.09;;;2.39;77.61
58471;BME280;44258;51.288;12.068;2022-12-05T02:20:41;100477.34;;;2.26;77.88
58471;BME280;44258;51.288;12.068;2022-12-05T02:23:25;100472.41;;;2.06;78.85
58471;BME280;44258;51.288;12.068;2022-12-05T02:26:24;100471.47;;;2.10;78.63
58471;BME280;44258;51.288;12.068;2022-12-05T02:29:24;100487.13;;;2.24;78.17
58471;BME280;44258;51.288;12.068;2022-12-05T02:32:02;100477.28;;;2.29;78.21
58471;BME280;44258;51.288;12.068;2022-12-05T02:34:33;100490.25;;;2.45;77.53
58471;BME280;44258;51.288;12.068;2022-12-05T02:37:08;100488.72;;;2.33;77.87
58471;BME280;44258;51.288;12.068;2022-12-05T02:39:42;100489.31;;;2.46;77.18
58471;BME280;44258;51.288;12.068;2022-12-05T02:42:12;100487.34;;;2.57;76.63
58471;BME280;44258;51.288;12.068;2022-12-05T02:44:45;100496.16;;;2.59;76.77
58471;BME280;44258;51.288;12.068;2022-12-05T02:47:18;100482.75;;;2.65;76.51
58471;BME280;44258;51.288;12.068;2022-12-05T02:49:47;100487.88;;;2.73;76.26
58471;BME280;44258;51.288;12.068;2022-12-05T02:52:16;100480.56;;;2.84;76.31
58471;BME280;44258;51.288;12.068;2022-12-05T02:54:47;100477.75;;;2.90;75.92
58471;BME280;44258;51.288;12.068;2022-12-05T02:57:15;100485.00;;;2.84;75.94
58471;BME280;44258;51.288;12.068;2022-12-05T02:59:43;100476.19;;;2.82;76.00
58471;BME280;44258;51.288;12.068;2022-12-05T03:02:24;100477.09;;;2.81;76.32
58471;BME280;44258;51.288;12.068;2022-12-05T03:04:52;100470.81;;;2.85;76.14
58471;BME280;44258;51.288;12.068;2022-12-05T03:07:20;100470.78;;;2.86;75.55
58471;BME280;44258;51.288;12.068;2022-12-05T03:09:50;100472.69;;;2.81;75.71
58471;BME280;44258;51.288;12.068;2022-12-05T03:12:22;100474.25;;;2.90;75.58
58471;BME280;44258;51.288;12.068;2022-12-05T03:14:53;100483.88;;;2.96;75.66
58471;BME280;44258;51.288;12.068;2022-12-05T03:17:25;100475.81;;;2.99;75.43
58471;BME280;44258;51.288;12.068;2022-12-05T03:19:58;100469.59;;;3.00;75.15
58471;BME280;44258;51.288;12.068;2022-12-05T03:22:36;100478.31;;;3.06;74.88
58471;BME280;44258;51.288;12.068;2022-12-05T03:25:04;100483.59;;;3.08;74.66
58471;BME280;44258;51.288;12.068;2022-12-05T03:27:39;100484.50;;;3.05;74.86
58471;BME280;44258;51.288;12.068;2022-12-05T03:30:10;100482.63;;;3.10;74.63
58471;BME280;44258;51.288;12.068;2022-12-05T03:32:48;100485.25;;;3.12;74.85
58471;BME280;44258;51.288;12.068;2022-12-05T03:35:21;100485.97;;;3.20;74.45
58471;BME280;44258;51.288;12.068;2022-12-05T03:37:52;100478.91;;;3.18;73.88
58471;BME280;44258;51.288;12.068;2022-12-05T03:40:26;100490.44;;;3.18;74.45
58471;BME280;44258;51.288;12.068;2022-12-05T03:43:00;100489.66;;;3.13;74.49
58471;BME280;44258;51.288;12.068;2022-12-05T03:45:37;100482.53;;;3.15;74.63
58471;BME280;44258;51.288;12.068;2022-12-05T03:48:12;100488.78;;;3.12;74.60
58471;BME280;44258;51.288;12.068;2022-12-05T03:50:42;100473.53;;;3.21;74.36
58471;BME280;44258;51.288;12.068;2022-12-05T03:53:15;100483.22;;;3.23;74.54
58471;BME280;44258;51.288;12.068;2022-12-05T03:55:44;100473.38;;;3.27;74.13
58471;BME280;44258;51.288;12.068;2022-12-05T03:58:17;100477.72;;;3.31;74.13
58471;BME280;44258;51.288;12.068;2022-12-05T04:00:49;100489.22;;;3.31;74.04
58471;BME280;44258;51.288;12.068;2022-12-05T04:03:23;100479.50;;;3.30;74.21
58471;BME280;44258;51.288;12.068;2022-12-05T04:06:07;100478.44;;;3.38;74.03
58471;BME280;44258;51.288;12.068;2022-12-05T04:08:38;100482.78;;;3.42;73.69
58471;BME280;44258;51.288;12.068;2022-12-05T04:11:12;100481.91;;;3.41;73.56
58471;BME280;44258;51.288;12.068;2022-12-05T04:13:42;100483.63;;;3.45;73.63
58471;BME280;44258;51.288;12.068;2022-12-05T04:16:15;100490.75;;;3.42;73.66
58471;BME280;44258;51.288;12.068;2022-12-05T04:19:05;100488.22;;;3.36;73.69
58471;BME280;44258;51.288;12.068;2022-12-05T04:21:39;100480.34;;;3.32;73.81
58471;BME280;44258;51.288;12.068;2022-12-05T04:24:10;100490.91;;;3.36;73.83
58471;BME280;44258;51.288;12.068;2022-12-05T04:27:05;100491.75;;;3.36;73.70
58471;BME280;44258;51.288;12.068;2022-12-05T04:29:41;100489.03;;;3.41;73.95
58471;BME280;44258;51.288;12.068;2022-12-05T04:32:13;100499.53;;;3.47;73.63
58471;BME280;44258;51.288;12.068;2022-12-05T04:34:47;100503.88;;;3.51;73.65
58471;BME280;44258;51.288;12.068;2022-12-05T04:37:21;100504.56;;;3.58;72.94
58471;BME280;44258;51.288;12.068;2022-12-05T04:39:54;100506.28;;;3.60;72.83
58471;BME280;44258;51.288;12.068;2022-12-05T04:42:25;100503.72;;;3.57;72.81
58471;BME280;44258;51.288;12.068;2022-12-05T04:44:57;100510.84;;;3.55;72.56
58471;BME280;44258;51.288;12.068;2022-12-05T04:47:28;100511.72;;;3.56;72.66
58471;BME280;44258;51.288;12.068;2022-12-05T04:49:59;100518.00;;;3.53;72.86
58471;BME280;44258;51.288;12.068;2022-12-05T04:52:27;100517.03;;;3.56;72.91
58471;BME280;44258;51.288;12.068;2022-12-05T04:54:58;100520.69;;;3.51;73.04
58471;BME280;44258;51.288;12.068;2022-12-05T04:57:31;100522.44;;;3.52;72.82
58471;BME280;44258;51.288;12.068;2022-12-05T04:59:59;100528.53;;;3.56;72.80
58471;BME280;44258;51.288;12.068;2022-12-05T05:02:31;100525.00;;;3.56;72.91
58471;BME280;44258;51.288;12.068;2022-12-05T05:05:01;100523.22;;;3.56;72.69
58471;BME280;44258;51.288;12.068;2022-12-05T05:07:28;100523.16;;;3.59;72.78
58471;BME280;44258;51.288;12.068;2022-12-05T05:09:56;100527.56;;;3.60;72.50
58471;BME280;44258;51.288;12.068;2022-12-05T05:12:22;100531.94;;;3.63;72.27
58471;BME280;44258;51.288;12.068;2022-12-05T05:14:52;100528.31;;;3.65;72.22
58471;BME280;44258;51.288;12.068;2022-12-05T05:17:18;100526.56;;;3.64;72.47
58471;BME280;44258;51.288;12.068;2022-12-05T05:19:47;100530.28;;;3.59;72.41
58471;BME280;44258;51.288;12.068;2022-12-05T05:22:15;100529.38;;;3.58;72.71
58471;BME280;44258;51.288;12.068;2022-12-05T05:24:42;100525.72;;;3.62;72.47
58471;BME280;44258;51.288;12.068;2022-12-05T05:27:09;100532.72;;;3.66;72.39
58471;BME280;44258;51.288;12.068;2022-12-05T05:29:38;100532.69;;;3.68;72.21
58471;BME280;44258;51.288;12.068;2022-12-05T05:32:04;100541.50;;;3.70;72.58
58471;BME280;44258;51.288;12.068;2022-12-05T05:34:31;100543.28;;;3.71;71.95
58471;BME280;44258;51.288;12.068;2022-12-05T05:36:58;100550.31;;;3.72;72.03
58471;BME280;44258;51.288;12.068;2022-12-05T05:39:26;100545.00;;;3.72;72.39
58471;BME280;44258;51.288;12.068;2022-12-05T05:41:54;100538.78;;;3.73;72.12
58471;BME280;44258;51.288;12.068;2022-12-05T05:44:21;100542.34;;;3.72;71.80
58471;BME280;44258;51.288;12.068;2022-12-05T05:46:48;100549.44;;;3.71;71.96
58471;BME280;44258;51.288;12.068;2022-12-05T05:49:15;100544.97;;;3.73;71.76
58471;BME280;44258;51.288;12.068;2022-12-05T05:51:42;100551.09;;;3.77;72.24
58471;BME280;44258;51.288;12.068;2022-12-05T05:54:09;100552.81;;;3.80;72.07
58471;BME280;44258;51.288;12.068;2022-12-05T05:56:38;100548.47;;;3.76;71.93
58471;BME280;44258;51.288;12.068;2022-12-05T05:59:05;100561.69;;;3.79;71.71
58471;BME280;44258;51.288;12.068;2022-12-05T06:01:32;100551.13;;;3.76;71.99
58471;BME280;44258;51.288;12.068;2022-12-05T06:04:02;100561.75;;;3.76;71.94
58471;BME280;44258;51.288;12.068;2022-12-05T06:06:29;100563.34;;;3.83;71.53
58471;BME280;44258;51.288;12.068;2022-12-05T06:08:55;100562.50;;;3.81;71.71
58471;BME280;44258;51.288;12.068;2022-12-05T06:11:24;100569.72;;;3.77;71.69
58471;BME280;44258;51.288;12.068;2022-12-05T06:13:55;100565.47;;;3.68;71.62
58471;BME280;44258;51.288;12.068;2022-12-05T06:16:23;100566.41;;;3.67;71.48
58471;BME280;44258;51.288;12.068;2022-12-05T06:18:50;100566.53;;;3.61;71.45
58471;BME280;44258;51.288;12.068;2022-12-05T06:21:17;100570.16;;;3.59;71.93
58471;BME280;44258;51.288;12.068;2022-12-05T06:23:44;100567.44;;;3.60;72.05
58471;BME280;44258;51.288;12.068;2022-12-05T06:26:12;100572.72;;;3.62;71.82
58471;BME280;44258;51.288;12.068;2022-12-05T06:28:40;100571.84;;;3.63;71.57
58471;BME280;44258;51.288;12.068;2022-12-05T06:31:10;100563.03;;;3.61;71.54
58471;BME280;44258;51.288;12.068;2022-12-05T06:33:39;100569.13;;;3.64;71.89
58471;BME280;44258;51.288;12.068;2022-12-05T06:36:07;100562.03;;;3.65;71.93
58471;BME280;44258;51.288;12.068;2022-12-05T06:38:34;100567.25;;;3.68;71.95
58471;BME280;44258;51.288;12.068;2022-12-05T06:41:04;100558.38;;;3.69;71.88
58471;BME280;44258;51.288;12.068;2022-12-05T06:43:31;100570.63;;;3.76;71.85
58471;BME280;44258;51.288;12.068;2022-12-05T06:45:58;100568.78;;;3.78;71.22
58471;BME280;44258;51.288;12.068;2022-12-05T06:48:26;100571.53;;;3.75;71.22
58471;BME280;44258;51.288;12.068;2022-12-05T06:50:53;100567.94;;;3.76;71.39
58471;BME280;44258;51.288;12.068;2022-12-05T06:53:20;100568.81;;;3.77;71.29
58471;BME280;44258;51.288;12.068;2022-12-05T06:55:54;100574.25;;;3.72;71.57
58471;BME280;44258;51.288;12.068;2022-12-05T06:58:22;100577.59;;;3.80;71.19
58471;BME280;44258;51.288;12.068;2022-12-05T07:00:49;100585.69;;;3.77;70.75
58471;BME280;44258;51.288;12.068;2022-12-05T07:03:34;100584.91;;;3.72;71.33
58471;BME280;44258;51.288;12.068;2022-12-05T07:06:01;100577.84;;;3.71;70.97
58471;BME280;44258;51.288;12.068;2022-12-05T07:08:29;100578.72;;;3.71;71.15
58471;BME280;44258;51.288;12.068;2022-12-05T07:10:56;100584.91;;;3.72;71.14
58471;BME280;44258;51.288;12.068;2022-12-05T07:13:23;100589.38;;;3.70;71.15
58471;BME280;44258;51.288;12.068;2022-12-05T07:15:50;100592.97;;;3.69;70.95
58471;BME280;44258;51.288;12.068;2022-12-05T07:18:18;100585.97;;;3.65;71.06
58471;BME280;44258;51.288;12.068;2022-12-05T07:20:54;100585.22;;;3.58;71.46
58471;BME280;44258;51.288;12.068;2022-12-05T07:23:21;100593.97;;;3.63;70.97
58471;BME280;44258;51.288;12.068;2022-12-05T07:25:48;100593.25;;;3.57;70.86
58471;BME280;44258;51.288;12.068;2022-12-05T07:28:15;100594.22;;;3.52;71.66
58471;BME280;44258;51.288;12.068;2022-12-05T07:30:42;100591.56;;;3.52;71.57
58471;BME280;44258;51.288;12.068;2022-12-05T07:33:09;100593.28;;;3.55;71.33
58471;BME280;44258;51.288;12.068;2022-12-05T07:35:35;100595.06;;;3.55;71.19
58471;BME280;44258;51.288;12.068;2022-12-05T07:38:03;100601.16;;;3.58;71.28
58471;BME280;44258;51.288;12.068;2022-12-05T07:40:31;100596.75;;;3.59;70.76
58471;BME280;44258;51.288;12.068;2022-12-05T07:42:57;100603.81;;;3.60;71.12
58471;BME280;44258;51.288;12.068;2022-12-05T07:45:24;100598.50;;;3.58;71.46
58471;BME280;44258;51.288;12.068;2022-12-05T07:47:50;100606.41;;;3.63;71.04
58471;BME280;44258;51.288;12.068;2022-12-05T07:50:17;100607.38;;;3.59;71.22
58471;BME280;44258;51.288;12.068;2022-12-05T07:52:44;100607.47;;;3.54;71.39
58471;BME280;44258;51.288;12.068;2022-12-05T07:55:12;100607.56;;;3.51;71.31
58471;BME280;44258;51.288;12.068;2022-12-05T07:57:38;100617.22;;;3.53;71.31
58471;BME280;44258;51.288;12.068;2022-12-05T08:00:06;100619.06;;;3.50;71.31
58471;BME280;44258;51.288;12.068;2022-12-05T08:02:33;100620.19;;;3.38;71.38
58471;BME280;44258;51.288;12.068;2022-12-05T08:05:00;100626.44;;;3.37;71.90
58471;BME280;44258;51.288;12.068;2022-12-05T08:07:27;100630.91;;;3.35;71.90
58471;BME280;44258;51.288;12.068;2022-12-05T08:09:53;100634.41;;;3.36;72.00
58471;BME280;44258;51.288;12.068;2022-12-05T08:12:21;100632.59;;;3.38;71.76
58471;BME280;44258;51.288;12.068;2022-12-05T08:14:48;100627.44;;;3.31;72.13
58471;BME280;44258;51.288;12.068;2022-12-05T08:17:19;100625.56;;;3.37;72.27
58471;BME280;44258;51.288;12.068;2022-12-05T08:19:45;100635.22;;;3.41;72.28
58471;BME280;44258;51.288;12.068;2022-12-05T08:22:12;100634.28;;;3.45;71.88
58471;BME280;44258;51.288;12.068;2022-12-05T08:24:43;100637.78;;;3.45;72.02
58471;BME280;44258;51.288;12.068;2022-12-05T08:27:09;100623.47;;;3.52;71.83
58471;BME280;44258;51.288;12.068;2022-12-05T08:29:37;100628.94;;;3.46;72.14
58471;BME280;44258;51.288;12.068;2022-12-05T08:32:04;100639.47;;;3.49;71.87
58471;BME280;44258;51.288;12.068;2022-12-05T08:34:31;100640.22;;;3.56;72.18
58471;BME280;44258;51.288;12.068;2022-12-05T08:36:58;100644.50;;;3.63;71.81
58471;BME280;44258;51.288;12.068;2022-12-05T08:39:25;100647.78;;;3.32;72.32
58471;BME280;44258;51.288;12.068;2022-12-05T08:41:52;100651.97;;;3.44;72.62
58471;BME280;44258;51.288;12.068;2022-12-05T08:44:19;100650.84;;;3.56;72.15
58471;BME280;44258;51.288;12.068;2022-12-05T08:46:48;100652.50;;;3.62;72.31
58471;BME280;44258;51.288;12.068;2022-12-05T08:49:15;100651.53;;;3.66;72.06
58471;BME280;44258;51.288;12.068;2022-12-05T08:51:42;100655.03;;;3.68;71.92
58471;BME280;44258;51.288;12.068;2022-12-05T08:54:12;100660.28;;;3.71;71.55
58471;BME280;44258;51.288;12.068;2022-12-05T08:56:39;100655.97;;;3.65;71.67
58471;BME280;44258;51.288;12.068;2022-12-05T08:59:06;100668.44;;;3.63;71.75
58471;BME280;44258;51.288;12.068;2022-12-05T09:01:34;100663.00;;;3.68;71.94
58471;BME280;44258;51.288;12.068;2022-12-05T09:04:04;100672.78;;;3.66;71.89
58471;BME280;44258;51.288;12.068;2022-12-05T09:06:32;100682.63;;;3.62;71.47
58471;BME280;44258;51.288;12.068;2022-12-05T09:09:04;100681.00;;;3.57;71.52
58471;BME280;44258;51.288;12.068;2022-12-05T09:11:33;100682.09;;;3.46;72.02
58471;BME280;44258;51.288;12.068;2022-12-05T09:14:01;100682.97;;;3.47;71.84
58471;BME280;44258;51.288;12.068;2022-12-05T09:16:29;100676.66;;;3.52;72.07
58471;BME280;44258;51.288;12.068;2022-12-05T09:18:57;100678.34;;;3.57;71.79
58471;BME280;44258;51.288;12.068;2022-12-05T09:21:26;100678.34;;;3.57;72.09
58471;BME280;44258;51.288;12.068;2022-12-05T09:23:53;100680.84;;;3.63;71.72
58471;BME280;44258;51.288;12.068;2022-12-05T09:26:23;100680.00;;;3.61;71.72
58471;BME280;44258;51.288;12.068;2022-12-05T09:28:52;100695.84;;;3.67;71.92
58471;BME280;44258;51.288;12.068;2022-12-05T09:31:20;100682.47;;;3.68;71.92
58471;BME280;44258;51.288;12.068;2022-12-05T09:33:48;100682.41;;;3.73;71.60
58471;BME280;44258;51.288;12.068;2022-12-05T09:36:18;100682.25;;;3.79;71.90
58471;BME280;44258;51.288;12.068;2022-12-05T09:38:46;100683.94;;;3.83;71.47
58471;BME280;44258;51.288;12.068;2022-12-05T09:41:22;100682.13;;;3.85;71.71
58471;BME280;44258;51.288;12.068;2022-12-05T09:44:15;100684.13;;;3.76;71.36
58471;BME280;44258;51.288;12.068;2022-12-05T09:46:52;100686.38;;;3.53;71.86
58471;BME280;44258;51.288;12.068;2022-12-05T09:49:22;100683.69;;;3.55;71.76
58471;BME280;44258;51.288;12.068;2022-12-05T09:51:50;100691.84;;;3.46;72.03
58471;BME280;44258;51.288;12.068;2022-12-05T09:54:19;100689.41;;;3.33;72.31
58471;BME280;44258;51.288;12.068;2022-12-05T09:56:48;100692.06;;;3.33;72.24
58471;BME280;44258;51.288;12.068;2022-12-05T09:59:16;100686.50;;;3.46;72.69
58471;BME280;44258;51.288;12.068;2022-12-05T10:01:50;100687.41;;;3.46;72.68
58471;BME280;44258;51.288;12.068;2022-12-05T10:04:29;100688.19;;;3.50;72.64
58471;BME280;44258;51.288;12.068;2022-12-05T10:07:10;100681.00;;;3.57;72.28
58471;BME280;44258;51.288;12.068;2022-12-05T10:09:59;100678.34;;;3.57;72.10
58471;BME280;44258;51.288;12.068;2022-12-05T10:12:43;100678.00;;;3.70;72.25
58471;BME280;44258;51.288;12.068;2022-12-05T10:15:16;100676.94;;;3.79;71.86
58471;BME280;44258;51.288;12.068;2022-12-05T10:17:51;100679.59;;;3.79;71.84
58471;BME280;44258;51.288;12.068;2022-12-05T10:20:25;100676.31;;;3.66;71.52
58471;BME280;44258;51.288;12.068;2022-12-05T10:22:56;100669.88;;;3.77;71.78
58471;BME280;44258;51.288;12.068;2022-12-05T10:25:26;100671.53;;;3.82;71.98
58471;BME280;44258;51.288;12.068;2022-12-05T10:27:57;100668.75;;;3.87;71.76
58471;BME280;44258;51.288;12.068;2022-12-05T10:30:28;100671.63;;;3.79;71.46
58471;BME280;44258;51.288;12.068;2022-12-05T10:32:58;100685.00;;;3.75;71.72
58471;BME280;44258;51.288;12.068;2022-12-05T10:35:30;100678.84;;;3.72;72.07
58471;BME280;44258;51.288;12.068;2022-12-05T10:38:02;100673.63;;;3.68;71.67
58471;BME280;44258;51.288;12.068;2022-12-05T10:40:33;100683.47;;;3.64;71.92
58471;BME280;44258;51.288;12.068;2022-12-05T10:43:02;100680.81;;;3.64;71.70
58471;BME280;44258;51.288;12.068;2022-12-05T10:45:31;100679.88;;;3.67;72.04
58471;BME280;44258;51.288;12.068;2022-12-05T10:47:59;100686.88;;;3.71;72.03
58471;BME280;44258;51.288;12.068;2022-12-05T10:50:29;100692.97;;;3.75;71.75
58471;BME280;44258;51.288;12.068;2022-12-05T10:52:58;100688.47;;;3.78;71.47
58471;BME280;44258;51.288;12.068;2022-12-05T10:55:29;100681.34;;;3.80;71.66
58471;BME280;44258;51.288;12.068;2022-12-05T10:58:10;100686.53;;;3.86;71.89
58471;BME280;44258;51.288;12.068;2022-12-05T11:00:38;100681.22;;;3.85;71.07
58471;BME280;44258;51.288;12.068;2022-12-05T11:03:22;100680.81;;;3.64;71.42
58471;BME280;44258;51.288;12.068;2022-12-05T11:05:50;100686.06;;;3.67;71.74
58471;BME280;44258;51.288;12.068;2022-12-05T11:08:22;100681.03;;;3.55;72.23
58471;BME280;44258;51.288;12.068;2022-12-05T11:10:59;100680.81;;;3.64;72.32
58471;BME280;44258;51.288;12.068;2022-12-05T11:13:29;100677.88;;;3.77;71.70
58471;BME280;44258;51.288;12.068;2022-12-05T11:15:56;100681.19;;;3.86;71.56
58471;BME280;44258;51.288;12.068;2022-12-05T11:18:28;100679.31;;;3.91;71.39
58471;BME280;44258;51.288;12.068;2022-12-05T11:20:56;100680.09;;;3.95;71.20
58471;BME280;44258;51.288;12.068;2022-12-05T11:23:28;100671.38;;;3.90;71.70
58471;BME280;44258;51.288;12.068;2022-12-05T11:25:56;100676.47;;;3.99;71.65
58471;BME280;44258;51.288;12.068;2022-12-05T11:28:31;100678.94;;;4.07;71.55
58471;BME280;44258;51.288;12.068;2022-12-05T11:31:01;100684.03;;;4.18;71.12
58471;BME280;44258;51.288;12.068;2022-12-05T11:33:29;100679.56;;;4.20;70.73
58471;BME280;44258;51.288;12.068;2022-12-05T11:36:03;100679.59;;;4.17;70.73
58471;BME280;44258;51.288;12.068;2022-12-05T11:38:32;100678.81;;;4.13;70.84
58471;BME280;44258;51.288;12.068;2022-12-05T11:41:10;100679.06;;;4.02;70.92
58471;BME280;44258;51.288;12.068;2022-12-05T11:43:54;100672.03;;;4.00;71.51
58471;BME280;44258;51.288;12.068;2022-12-05T11:46:32;100669.44;;;3.97;71.19
58471;BME280;44258;51.288;12.068;2022-12-05T11:49:20;100677.13;;;4.09;71.09
58471;BME280;44258;51.288;12.068;2022-12-05T11:52:00;100666.53;;;4.07;71.31
58471;BME280;44258;51.288;12.068;2022-12-05T11:54:42;100667.22;;;4.16;71.12
58471;BME280;44258;51.288;12.068;2022-12-05T11:57:23;100671.59;;;4.18;70.79
58471;BME280;44258;51.288;12.068;2022-12-05T12:00:23;100675.06;;;4.22;71.03
58471;BME280;44258;51.288;12.068;2022-12-05T12:03:17;100679.41;;;4.26;70.90
58471;BME280;44258;51.288;12.068;2022-12-05T12:05:54;100679.56;;;4.20;70.28
58471;BME280;44258;51.288;12.068;2022-12-05T12:08:23;100680.53;;;4.16;70.30
58471;BME280;44258;51.288;12.068;2022-12-05T12:10:58;100675.16;;;4.17;70.86
58471;BME280;44258;51.288;12.068;2022-12-05T12:13:38;100680.47;;;4.17;70.36
58471;BME280;44258;51.288;12.068;2022-12-05T12:16:14;100677.03;;;4.13;70.65
58471;BME280;44258;51.288;12.068;2022-12-05T12:18:58;100675.53;;;4.02;70.66
58471;BME280;44258;51.288;12.068;2022-12-05T12:21:35;100674.84;;;3.93;70.50
58471;BME280;44258;51.288;12.068;2022-12-05T12:24:10;100663.53;;;3.84;70.96
58471;BME280;44258;51.288;12.068;2022-12-05T12:26:53;100668.97;;;3.79;71.10
58471;BME280;44258;51.288;12.068;2022-12-05T12:29:31;100659.94;;;3.85;70.87
58471;BME280;44258;51.288;12.068;2022-12-05T12:32:18;100662.53;;;3.89;71.36
58471;BME280;44258;51.288;12.068;2022-12-05T12:35:02;100666.78;;;3.97;71.37
58471;BME280;44258;51.288;12.068;2022-12-05T12:37:37;100661.41;;;3.98;70.79
58471;BME280;44258;51.288;12.068;2022-12-05T12:40:13;100661.28;;;4.04;70.97
58471;BME280;44258;51.288;12.068;2022-12-05T12:42:52;100661.28;;;4.04;70.60
58471;BME280;44258;51.288;12.068;2022-12-05T12:45:37;100658.63;;;4.04;71.00
58471;BME280;44258;51.288;12.068;2022-12-05T12:48:26;100665.63;;;4.08;71.18
58471;BME280;44258;51.288;12.068;2022-12-05T12:51:00;100662.78;;;4.16;70.61
58471;BME280;44258;51.288;12.068;2022-12-05T12:56:51;100673.47;;;4.13;70.38
58471;BME280;44258;51.288;12.068;2022-12-05T12:59:35;100664.78;;;4.06;70.79
58471;BME280;44258;51.288;12.068;2022-12-05T13:02:12;100676.38;;;4.04;71.00
58471;BME280;44258;51.288;12.068;2022-12-05T13:04:47;100670.31;;;3.97;70.70
58471;BME280;44258;51.288;12.068;2022-12-05T13:07:22;100680.09;;;3.95;70.88
58471;BME280;44258;51.288;12.068;2022-12-05T13:09:55;100672.97;;;3.97;70.79
58471;BME280;44258;51.288;12.068;2022-12-05T13:12:26;100680.09;;;3.95;71.08
58471;BME280;44258;51.288;12.068;2022-12-05T13:14:58;100682.00;;;3.91;70.82